createdAt,value
2023-02-05T00:01:43.088Z,16.17
2023-02-05T00:04:14.980Z,16.58
2023-02-05T00:06:46.886Z,16.15
2023-02-05T00:09:18.749Z,15.82
2023-02-05T00:11:50.610Z,15.55
2023-02-05T00:14:22.929Z,15.05
2023-02-05T00:16:54.837Z,16.02
2023-02-05T00:19:26.788Z,14.13
2023-02-05T00:21:58.646Z,13.77
2023-02-05T00:24:30.528Z,14.05
2023-02-05T00:27:02.752Z,14.82
2023-02-05T00:29:34.666Z,13.55
2023-02-05T00:32:06.513Z,13.43
2023-02-05T00:34:38.480Z,13.35
2023-02-05T00:37:10.272Z,12.55
2023-02-05T00:39:42.094Z,12.32
2023-02-05T00:42:14.027Z,12.45
2023-02-05T00:44:45.949Z,14.20
2023-02-05T00:47:17.888Z,12.73
2023-02-05T00:49:49.734Z,12.85
2023-02-05T00:52:21.685Z,12.88
2023-02-05T00:54:53.651Z,11.75
2023-02-05T00:57:25.834Z,11.98
2023-02-05T00:59:57.689Z,11.63
2023-02-05T01:02:30.260Z,11.05
2023-02-05T01:05:03.428Z,11.35
2023-02-05T01:07:35.413Z,11.38
2023-02-05T01:10:07.749Z,11.88
2023-02-05T01:12:39.674Z,11.25
2023-02-05T01:15:13.684Z,11.15
2023-02-05T01:17:46.161Z,10.32
2023-02-05T01:20:19.276Z,11.27
2023-02-05T01:22:51.532Z,9.13
2023-02-05T01:25:24.119Z,9.07
2023-02-05T01:27:56.647Z,9.15
2023-02-05T01:30:28.701Z,8.88
2023-02-05T01:33:02.092Z,10.00
2023-02-05T01:35:34.653Z,9.43
2023-02-05T01:38:07.972Z,8.82
2023-02-05T01:40:40.111Z,8.30
2023-02-05T01:43:16.935Z,8.13
2023-02-05T01:46:19.461Z,8.02
2023-02-05T01:48:55.941Z,7.93
2023-02-05T01:51:30.434Z,7.25
2023-02-05T01:54:02.529Z,7.22
2023-02-05T01:56:39.469Z,8.23
2023-02-05T01:59:26.914Z,7.22
2023-02-05T02:02:01.065Z,7.50
2023-02-05T02:04:50.077Z,7.10
2023-02-05T02:07:24.447Z,6.53
2023-02-05T02:09:56.431Z,7.00
2023-02-05T02:12:32.388Z,7.50
2023-02-05T02:15:12.338Z,6.80
2023-02-05T02:17:47.700Z,6.43
2023-02-05T02:20:28.016Z,5.95
2023-02-05T02:23:12.026Z,5.95
2023-02-05T02:26:08.731Z,5.78
2023-02-05T02:28:51.531Z,5.25
2023-02-05T02:31:32.033Z,5.18
2023-02-05T02:34:31.313Z,4.65
2023-02-05T02:37:14.626Z,4.95
2023-02-05T02:40:12.987Z,5.55
2023-02-05T02:42:57.759Z,5.45
2023-02-05T02:45:34.198Z,4.60
2023-02-05T02:48:07.344Z,5.13
2023-02-05T02:50:43.637Z,4.78
2023-02-05T02:53:20.714Z,4.75
2023-02-05T02:55:55.600Z,4.75
2023-02-05T02:58:35.820Z,4.22
2023-02-05T03:01:11.923Z,4.30
2023-02-05T03:03:51.482Z,4.47
2023-02-05T03:06:23.476Z,4.40
2023-02-05T03:09:03.434Z,4.15
2023-02-05T03:11:35.938Z,3.60
2023-02-05T03:14:08.360Z,3.20
2023-02-05T03:16:42.968Z,4.38
2023-02-05T03:19:14.847Z,3.30
2023-02-05T03:21:51.180Z,3.67
2023-02-05T03:24:23.314Z,4.03
2023-02-05T03:26:55.269Z,3.72
2023-02-05T03:29:36.544Z,3.80
2023-02-05T03:32:46.006Z,3.60
2023-02-05T03:35:40.831Z,3.67
2023-02-05T03:38:45.302Z,3.70
2023-02-05T03:41:57.711Z,3.50
2023-02-05T03:44:52.917Z,3.25
2023-02-05T03:47:49.308Z,3.30
2023-02-05T03:50:32.427Z,3.15
2023-02-05T03:53:21.952Z,2.88
2023-02-05T03:56:09.873Z,3.58
2023-02-05T03:58:55.191Z,4.28
2023-02-05T04:01:29.119Z,3.67
2023-02-05T04:04:01.352Z,3.80
2023-02-05T04:06:34.271Z,3.83
2023-02-05T04:09:07.310Z,4.07
2023-02-05T04:11:40.304Z,3.72
2023-02-05T04:14:12.269Z,4.30
2023-02-05T04:16:45.748Z,3.50
2023-02-05T04:19:17.932Z,3.90
2023-02-05T04:21:50.654Z,4.28
2023-02-05T04:24:22.685Z,3.80
2023-02-05T04:26:54.633Z,4.07
2023-02-05T04:29:26.861Z,4.63
2023-02-05T04:32:00.181Z,3.83
2023-02-05T04:34:32.100Z,3.78
2023-02-05T04:37:05.953Z,4.53
2023-02-05T04:39:38.025Z,4.20
2023-02-05T04:42:09.897Z,4.25
2023-02-05T04:44:41.782Z,3.78
2023-02-05T04:47:14.136Z,3.72
2023-02-05T04:49:46.041Z,4.03
2023-02-05T04:52:17.984Z,4.25
2023-02-05T04:54:49.912Z,4.97
2023-02-05T04:57:21.789Z,3.88
2023-02-05T04:59:53.674Z,4.00
2023-02-05T05:02:25.822Z,4.03
2023-02-05T05:04:57.774Z,3.63
2023-02-05T05:07:32.745Z,3.72
2023-02-05T05:10:07.314Z,3.90
2023-02-05T05:12:39.292Z,3.75
2023-02-05T05:15:11.171Z,3.65
2023-02-05T05:17:42.984Z,4.50
2023-02-05T05:20:14.940Z,3.70
2023-02-05T05:22:46.849Z,3.60
2023-02-05T05:25:18.785Z,3.83
2023-02-05T05:27:50.723Z,3.65
2023-02-05T05:30:22.625Z,3.40
2023-02-05T05:32:54.533Z,3.55
2023-02-05T05:35:26.379Z,3.55
2023-02-05T05:37:58.946Z,3.97
2023-02-05T05:40:49.728Z,3.72
2023-02-05T05:43:40.761Z,3.67
2023-02-05T05:46:14.898Z,3.33
2023-02-05T05:48:46.829Z,3.90
2023-02-05T05:51:19.629Z,3.17
2023-02-05T05:53:51.748Z,3.60
2023-02-05T05:56:23.666Z,3.15
2023-02-05T05:58:55.571Z,3.47
2023-02-05T06:01:27.680Z,4.28
2023-02-05T06:03:59.582Z,3.28
2023-02-05T06:06:31.500Z,3.65
2023-02-05T06:09:03.476Z,3.00
2023-02-05T06:11:35.376Z,3.42
2023-02-05T06:14:07.356Z,3.35
2023-02-05T06:16:40.306Z,3.38
2023-02-05T06:19:12.264Z,3.53
2023-02-05T06:21:44.169Z,3.38
2023-02-05T06:24:16.029Z,3.47
2023-02-05T06:26:47.886Z,3.30
2023-02-05T06:29:19.908Z,3.17
2023-02-05T06:31:52.016Z,3.53
2023-02-05T06:34:23.880Z,3.75
2023-02-05T06:36:55.911Z,4.55
2023-02-05T06:39:27.969Z,3.30
2023-02-05T06:42:00.150Z,4.45
2023-02-05T06:44:32.571Z,3.90
2023-02-05T06:47:04.480Z,3.75
2023-02-05T06:49:36.621Z,3.40
2023-02-05T06:52:08.528Z,3.47
2023-02-05T06:54:40.544Z,3.30
2023-02-05T06:57:12.512Z,4.05
2023-02-05T06:59:44.366Z,3.45
2023-02-05T07:02:16.316Z,3.53
2023-02-05T07:04:48.249Z,3.70
2023-02-05T07:07:20.155Z,3.15
2023-02-05T07:09:52.024Z,18.58
2023-02-05T07:12:23.920Z,44.50
2023-02-05T07:14:55.831Z,20.35
2023-02-05T07:17:28.747Z,3.72
2023-02-05T07:20:01.203Z,3.03
2023-02-05T07:22:33.106Z,3.35
2023-02-05T07:25:05.240Z,3.70
2023-02-05T07:27:37.115Z,3.75
2023-02-05T07:30:09.718Z,3.72
2023-02-05T07:32:41.780Z,3.30
2023-02-05T07:35:13.699Z,3.05
2023-02-05T07:37:45.651Z,3.42
2023-02-05T07:40:17.830Z,3.85
2023-02-05T07:42:50.025Z,3.50
2023-02-05T07:45:22.040Z,3.40
2023-02-05T07:47:54.096Z,5.57
2023-02-05T07:50:26.053Z,3.90
2023-02-05T07:52:57.905Z,3.75
2023-02-05T07:55:29.727Z,3.60
2023-02-05T07:58:01.627Z,4.30
2023-02-05T08:00:33.675Z,4.30
2023-02-05T08:03:05.756Z,3.58
2023-02-05T08:05:38.386Z,3.70
2023-02-05T08:08:10.830Z,3.47
2023-02-05T08:10:42.680Z,4.07
2023-02-05T08:13:14.508Z,4.53
2023-02-05T08:15:46.449Z,4.38
2023-02-05T08:18:18.421Z,4.03
2023-02-05T08:20:54.627Z,4.50
2023-02-05T08:23:26.898Z,3.80
2023-02-05T08:25:59.899Z,4.40
2023-02-05T08:28:32.087Z,3.92
2023-02-05T08:31:13.506Z,3.85
2023-02-05T08:33:47.733Z,4.03
2023-02-05T08:36:19.690Z,5.13
2023-02-05T08:38:51.594Z,5.00
2023-02-05T08:41:23.769Z,6.72
2023-02-05T08:43:55.791Z,4.57
2023-02-05T08:46:33.856Z,4.57
2023-02-05T08:49:17.014Z,3.88
2023-02-05T08:51:48.980Z,4.13
2023-02-05T08:54:21.048Z,4.18
2023-02-05T08:56:53.096Z,3.90
2023-02-05T08:59:25.096Z,4.30
2023-02-05T09:01:57.000Z,3.47
2023-02-05T09:04:28.996Z,7.40
2023-02-05T09:07:00.875Z,3.60
2023-02-05T09:09:35.011Z,1.90
2023-02-05T09:12:07.480Z,2.08
2023-02-05T09:14:39.892Z,1.60
2023-02-05T09:17:14.362Z,2.10
2023-02-05T09:19:46.390Z,1.92
2023-02-05T09:22:18.509Z,1.83
2023-02-05T09:24:50.491Z,1.40
2023-02-05T09:27:22.351Z,1.42
2023-02-05T09:29:54.212Z,1.58
2023-02-05T09:32:26.158Z,2.03
2023-02-05T09:34:58.057Z,1.80
2023-02-05T09:37:29.979Z,1.48
2023-02-05T09:40:20.098Z,1.45
2023-02-05T09:43:01.557Z,1.33
2023-02-05T09:45:52.018Z,1.65
2023-02-05T09:48:46.567Z,2.75
2023-02-05T09:51:22.355Z,3.58
2023-02-05T09:53:57.832Z,3.17
2023-02-05T09:56:30.327Z,2.70
2023-02-05T09:59:04.369Z,1.27
2023-02-05T10:01:51.089Z,3.78
2023-02-05T10:04:23.498Z,2.42
2023-02-05T10:07:28.551Z,1.80
2023-02-05T10:10:30.686Z,2.10
2023-02-05T10:13:14.584Z,2.03
2023-02-05T10:15:51.115Z,1.50
2023-02-05T10:18:59.720Z,1.50
2023-02-05T10:21:37.554Z,1.73
2023-02-05T10:24:47.129Z,2.30
2023-02-05T10:27:28.800Z,1.60
2023-02-05T10:30:09.593Z,1.40
2023-02-05T10:32:59.896Z,1.47
2023-02-05T10:35:49.854Z,1.20
2023-02-05T10:38:29.348Z,1.55
2023-02-05T10:41:12.157Z,1.23
2023-02-05T10:43:51.223Z,1.60
2023-02-05T10:46:31.994Z,1.73
2023-02-05T10:49:23.918Z,1.70
2023-02-05T10:51:55.884Z,2.33
2023-02-05T10:54:34.055Z,1.67
2023-02-05T10:57:15.770Z,1.48
2023-02-05T10:59:55.871Z,1.30
2023-02-05T11:02:50.891Z,2.15
2023-02-05T11:05:36.326Z,2.08
2023-02-05T11:08:32.420Z,1.58
2023-02-05T11:11:07.073Z,1.60
2023-02-05T11:13:48.120Z,1.50
2023-02-05T11:16:20.409Z,1.92
2023-02-05T11:18:58.940Z,1.80
2023-02-05T11:21:51.548Z,1.83
2023-02-05T11:24:33.950Z,1.75
2023-02-05T11:27:50.304Z,1.52
2023-02-05T11:30:53.691Z,1.80
2023-02-05T11:33:28.643Z,1.70
2023-02-05T11:36:09.380Z,2.00
2023-02-05T11:38:47.309Z,2.03
2023-02-05T11:41:32.239Z,1.90
2023-02-05T11:44:04.413Z,2.00
2023-02-05T11:46:44.445Z,2.20
2023-02-05T11:49:42.863Z,2.17
2023-02-05T11:52:17.579Z,1.85
2023-02-05T11:54:50.228Z,1.88
2023-02-05T11:57:22.064Z,1.85
2023-02-05T12:00:01.994Z,1.90
2023-02-05T12:02:38.960Z,2.30
2023-02-05T12:05:22.683Z,2.50
2023-02-05T12:08:11.098Z,2.03
2023-02-05T12:11:09.948Z,2.67
2023-02-05T12:14:06.564Z,3.67
2023-02-05T12:16:51.689Z,2.13
2023-02-05T12:19:33.733Z,2.40
2023-02-05T12:22:32.211Z,2.35
2023-02-05T12:25:22.611Z,2.25
2023-02-05T12:28:09.838Z,2.30
2023-02-05T12:31:05.033Z,3.00
2023-02-05T12:34:13.991Z,3.10
2023-02-05T12:37:02.315Z,2.55
2023-02-05T12:39:54.929Z,3.03
2023-02-05T12:42:33.062Z,2.30
2023-02-05T12:45:41.879Z,2.65
2023-02-05T12:49:00.209Z,2.55
2023-02-05T12:51:35.370Z,3.03
2023-02-05T12:54:24.988Z,2.72
2023-02-05T12:57:00.214Z,2.22
2023-02-05T12:59:43.301Z,2.10
2023-02-05T13:02:32.568Z,2.25
2023-02-05T13:05:16.395Z,2.88
2023-02-05T13:08:16.916Z,2.55
2023-02-05T13:10:52.279Z,2.40
2023-02-05T13:13:40.886Z,2.42
2023-02-05T13:16:17.312Z,2.40
2023-02-05T13:19:00.591Z,2.45
2023-02-05T13:21:52.613Z,2.88
2023-02-05T13:24:57.482Z,2.35
2023-02-05T13:27:52.608Z,2.50
2023-02-05T13:30:50.577Z,2.20
2023-02-05T13:33:22.810Z,2.40
2023-02-05T13:36:16.093Z,2.42
2023-02-05T13:39:06.067Z,2.60
2023-02-05T13:41:38.131Z,3.13
2023-02-05T13:44:32.852Z,2.63
2023-02-05T13:47:10.721Z,2.53
2023-02-05T13:50:01.651Z,3.50
2023-02-05T13:52:52.454Z,4.88
2023-02-05T13:56:16.446Z,7.07
2023-02-05T13:59:05.277Z,4.00
2023-02-05T14:01:43.113Z,2.22
2023-02-05T14:04:26.736Z,2.70
2023-02-05T14:07:13.089Z,5.10
2023-02-05T14:09:56.400Z,3.67
2023-02-05T14:12:38.468Z,2.70
2023-02-05T14:15:16.396Z,4.63
2023-02-05T14:17:48.364Z,4.72
2023-02-05T14:20:26.574Z,4.32
2023-02-05T14:23:05.868Z,3.20
2023-02-05T14:25:45.101Z,3.40
2023-02-05T14:28:17.060Z,2.70
2023-02-05T14:30:58.997Z,3.47
2023-02-05T14:33:37.237Z,3.38
2023-02-05T14:36:20.855Z,2.60
2023-02-05T14:39:21.143Z,2.55
2023-02-05T14:41:58.753Z,2.70
2023-02-05T14:44:34.952Z,2.80
2023-02-05T14:47:25.842Z,2.38
2023-02-05T14:50:18.630Z,2.87
2023-02-05T14:53:06.379Z,2.75
2023-02-05T14:55:43.738Z,3.22
2023-02-05T14:58:28.740Z,2.90
2023-02-05T15:01:36.132Z,3.00
2023-02-05T15:04:23.692Z,3.40
2023-02-05T15:06:58.576Z,3.65
2023-02-05T15:09:51.707Z,3.17
2023-02-05T15:13:03.360Z,3.00
2023-02-05T15:15:37.532Z,3.55
2023-02-05T15:18:24.927Z,3.10
2023-02-05T15:20:59.156Z,2.97
2023-02-05T15:24:01.907Z,3.17
2023-02-05T15:27:05.403Z,2.80
2023-02-05T15:29:45.263Z,3.20
2023-02-05T15:32:55.856Z,2.80
2023-02-05T15:35:33.136Z,2.30
2023-02-05T15:38:20.462Z,2.28
2023-02-05T15:40:53.685Z,2.72
2023-02-05T15:43:28.721Z,1.83
2023-02-05T15:46:07.480Z,2.17
2023-02-05T15:48:40.851Z,2.45
2023-02-05T15:51:36.366Z,2.42
2023-02-05T15:54:08.470Z,2.35
2023-02-05T15:56:44.537Z,2.90
2023-02-05T15:59:21.186Z,1.90
2023-02-05T16:02:18.810Z,2.20
2023-02-05T16:05:00.207Z,2.00
2023-02-05T16:07:43.396Z,2.10
2023-02-05T16:10:18.464Z,2.20
2023-02-05T16:13:05.836Z,2.30
2023-02-05T16:15:42.401Z,2.90
2023-02-05T16:18:19.685Z,1.80
2023-02-05T16:20:57.569Z,2.20
2023-02-05T16:23:38.352Z,1.83
2023-02-05T16:26:17.139Z,2.00
2023-02-05T16:28:54.535Z,2.47
2023-02-05T16:31:28.325Z,2.97
2023-02-05T16:34:05.360Z,2.17
2023-02-05T16:36:42.026Z,2.70
2023-02-05T16:39:28.962Z,2.67
2023-02-05T16:42:09.104Z,2.28
2023-02-05T16:44:42.193Z,2.63
2023-02-05T16:47:17.533Z,2.40
2023-02-05T16:49:50.008Z,5.20
2023-02-05T16:52:34.641Z,2.95
2023-02-05T16:55:28.353Z,2.33
2023-02-05T16:58:06.220Z,2.03
2023-02-05T17:00:38.588Z,2.30
2023-02-05T17:03:19.068Z,2.33
2023-02-05T17:05:58.666Z,2.03
2023-02-05T17:08:33.915Z,2.40
2023-02-05T17:11:13.116Z,2.20
2023-02-05T17:13:47.994Z,1.63
2023-02-05T17:16:31.147Z,2.10
2023-02-05T17:19:08.020Z,2.30
2023-02-05T17:21:40.310Z,2.10
2023-02-05T17:24:14.689Z,2.22
2023-02-05T17:26:47.071Z,2.05
2023-02-05T17:29:19.087Z,2.08
2023-02-05T17:31:51.228Z,2.20
2023-02-05T17:34:23.703Z,2.30
2023-02-05T17:36:56.188Z,2.25
2023-02-05T17:39:29.932Z,2.95
2023-02-05T17:42:07.626Z,2.25
2023-02-05T17:44:39.815Z,2.13
2023-02-05T17:47:11.814Z,2.35
2023-02-05T17:49:44.020Z,2.30
2023-02-05T17:52:17.129Z,3.03
2023-02-05T17:54:50.270Z,2.33
2023-02-05T17:57:23.648Z,2.55
2023-02-05T18:00:01.119Z,2.97
2023-02-05T18:02:33.716Z,2.58
2023-02-05T18:05:13.631Z,2.13
2023-02-05T18:07:53.027Z,2.20
2023-02-05T18:10:34.314Z,2.03
2023-02-05T18:13:10.549Z,2.33
2023-02-05T18:15:43.893Z,1.73
2023-02-05T18:18:16.136Z,2.30
2023-02-05T18:20:48.037Z,2.22
2023-02-05T18:23:28.739Z,2.75
2023-02-05T18:26:01.860Z,2.10
2023-02-05T18:28:34.235Z,2.10
2023-02-05T18:31:08.031Z,2.70
2023-02-05T18:33:40.716Z,2.63
2023-02-05T18:36:14.921Z,2.60
2023-02-05T18:38:46.795Z,1.70
2023-02-05T18:41:23.598Z,1.90
2023-02-05T18:43:56.546Z,1.80
2023-02-05T18:46:29.311Z,1.85
2023-02-05T18:49:01.703Z,1.80
2023-02-05T18:51:33.654Z,2.20
2023-02-05T18:54:06.770Z,2.08
2023-02-05T18:56:38.731Z,2.03
2023-02-05T18:59:15.754Z,2.08
2023-02-05T19:01:47.766Z,1.83
2023-02-05T19:04:21.033Z,2.75
2023-02-05T19:06:53.685Z,2.78
2023-02-05T19:09:26.227Z,2.28
2023-02-05T19:11:58.090Z,1.92
2023-02-05T19:14:29.945Z,3.03
2023-02-05T19:17:01.788Z,6.90
2023-02-05T19:19:34.140Z,5.20
2023-02-05T19:22:06.556Z,4.45
2023-02-05T19:24:40.373Z,3.63
2023-02-05T19:27:12.301Z,3.60
2023-02-05T19:29:44.262Z,2.90
2023-02-05T19:32:16.105Z,2.67
2023-02-05T19:34:48.049Z,2.80
2023-02-05T19:37:20.307Z,3.00
2023-02-05T19:39:52.476Z,2.80
2023-02-05T19:42:25.949Z,2.92
2023-02-05T19:44:58.013Z,3.53
2023-02-05T19:47:30.039Z,12.50
2023-02-05T19:50:01.979Z,2.73
2023-02-05T19:52:34.050Z,3.30
2023-02-05T19:55:06.371Z,7.80
2023-02-05T19:57:38.350Z,4.93
2023-02-05T20:00:11.206Z,4.25
2023-02-05T20:02:46.058Z,6.43
2023-02-05T20:05:18.200Z,5.00
2023-02-05T20:07:51.228Z,4.57
2023-02-05T20:10:23.172Z,3.50
2023-02-05T20:12:56.378Z,4.80
2023-02-05T20:15:28.285Z,4.57
2023-02-05T20:18:00.181Z,5.50
2023-02-05T20:20:33.905Z,3.60
2023-02-05T20:23:05.942Z,3.67
2023-02-05T20:25:37.889Z,3.58
2023-02-05T20:28:09.966Z,26.80
2023-02-05T20:31:00.743Z,4.63
2023-02-05T20:33:32.749Z,3.65
2023-02-05T20:36:10.442Z,4.40
2023-02-05T20:38:42.580Z,3.80
2023-02-05T20:41:17.341Z,3.80
2023-02-05T20:43:49.708Z,4.38
2023-02-05T20:46:22.758Z,4.90
2023-02-05T20:48:54.857Z,3.92
2023-02-05T20:51:27.386Z,3.58
2023-02-05T20:54:00.205Z,3.28
2023-02-05T20:56:32.591Z,3.33
2023-02-05T20:59:06.595Z,4.07
2023-02-05T21:01:39.950Z,4.15
2023-02-05T21:04:12.777Z,3.70
2023-02-05T21:06:44.682Z,4.32
2023-02-05T21:09:16.800Z,4.03
2023-02-05T21:11:50.101Z,4.85
2023-02-05T21:14:22.776Z,3.70
2023-02-05T21:16:54.806Z,4.00
2023-02-05T21:19:26.751Z,4.40
2023-02-05T21:21:59.306Z,4.82
2023-02-05T21:24:31.364Z,4.63
2023-02-05T21:27:03.263Z,4.50
2023-02-05T21:29:35.232Z,4.75
2023-02-05T21:32:08.127Z,4.40
2023-02-05T21:34:40.093Z,4.20
2023-02-05T21:37:12.102Z,3.92
2023-02-05T21:39:44.324Z,3.88
2023-02-05T21:42:16.178Z,4.32
2023-02-05T21:44:51.012Z,4.40
2023-02-05T21:47:23.137Z,3.72
2023-02-05T21:49:54.945Z,3.75
2023-02-05T21:52:26.998Z,3.55
2023-02-05T21:54:59.038Z,3.20
2023-02-05T21:57:30.946Z,3.33
2023-02-05T22:00:04.498Z,3.47
2023-02-05T22:02:43.922Z,3.60
2023-02-05T22:05:15.834Z,3.15
2023-02-05T22:07:50.713Z,3.03
2023-02-05T22:10:25.584Z,3.10
2023-02-05T22:12:57.749Z,3.58
2023-02-05T22:15:29.700Z,3.88
2023-02-05T22:18:01.615Z,3.35
2023-02-05T22:20:33.660Z,3.63
2023-02-05T22:23:05.546Z,3.35
2023-02-05T22:25:37.617Z,3.80
2023-02-05T22:28:09.782Z,3.60
2023-02-05T22:30:41.732Z,3.80
2023-02-05T22:33:13.666Z,3.83
2023-02-05T22:35:51.125Z,4.25
2023-02-05T22:38:23.121Z,4.40
2023-02-05T22:40:57.197Z,3.70
2023-02-05T22:43:29.052Z,4.50
2023-02-05T22:46:09.204Z,3.72
2023-02-05T22:48:43.518Z,6.90
2023-02-05T22:51:21.944Z,4.80
2023-02-05T22:53:54.569Z,4.40
2023-02-05T22:56:27.086Z,3.30
2023-02-05T22:59:01.359Z,3.17
2023-02-05T23:01:36.136Z,3.90
2023-02-05T23:04:09.807Z,5.38
2023-02-05T23:06:42.731Z,16.88
2023-02-05T23:09:16.949Z,11.13
2023-02-05T23:11:48.897Z,7.20
2023-02-05T23:14:20.724Z,6.15
2023-02-05T23:16:52.582Z,4.70
2023-02-05T23:19:24.529Z,3.53
2023-02-05T23:21:56.380Z,4.10
2023-02-05T23:24:28.290Z,3.10
2023-02-05T23:27:00.452Z,4.05
2023-02-05T23:29:32.343Z,3.45
2023-02-05T23:32:04.768Z,3.78
2023-02-05T23:34:36.812Z,3.60
2023-02-05T23:37:08.772Z,5.28
2023-02-05T23:39:40.626Z,4.75
2023-02-05T23:42:12.555Z,3.85
2023-02-05T23:44:44.445Z,3.90
2023-02-05T23:47:16.321Z,3.83
2023-02-05T23:49:48.302Z,3.65
2023-02-05T23:52:20.173Z,3.78
2023-02-05T23:54:52.106Z,3.53
2023-02-05T23:57:23.961Z,3.50
2023-02-05T23:59:55.837Z,3.60
